createdAt,value
2023-02-14T00:01:28.494Z,13.93
2023-02-14T00:04:30.533Z,14.98
2023-02-14T00:07:33.026Z,13.40
2023-02-14T00:10:35.553Z,12.63
2023-02-14T00:13:37.799Z,15.95
2023-02-14T00:16:39.834Z,11.20
2023-02-14T00:19:43.408Z,16.80
2023-02-14T00:22:45.427Z,13.07
2023-02-14T00:25:47.387Z,15.20
2023-02-14T00:28:49.416Z,12.63
2023-02-14T00:31:51.999Z,17.98
2023-02-14T00:34:54.057Z,12.55
2023-02-14T00:37:56.136Z,13.07
2023-02-14T00:40:58.525Z,11.70
2023-02-14T00:44:01.049Z,12.82
2023-02-14T00:47:03.152Z,17.55
2023-02-14T00:50:05.539Z,14.10
2023-02-14T00:53:07.656Z,14.55
2023-02-14T00:56:10.504Z,16.58
2023-02-14T00:59:12.998Z,19.00
2023-02-14T01:02:17.075Z,13.65
2023-02-14T01:05:19.560Z,11.30
2023-02-14T01:08:21.689Z,16.23
2023-02-14T01:11:25.403Z,11.32
2023-02-14T01:14:28.335Z,12.35
2023-02-14T01:17:30.499Z,14.73
2023-02-14T01:20:33.258Z,16.02
2023-02-14T01:23:35.226Z,12.50
2023-02-14T01:26:37.371Z,13.18
2023-02-14T01:29:39.385Z,16.88
2023-02-14T01:32:42.529Z,15.25
2023-02-14T01:35:44.521Z,12.70
2023-02-14T01:38:47.313Z,9.18
2023-02-14T01:41:50.215Z,12.90
2023-02-14T01:45:20.000Z,14.27
2023-02-14T01:48:23.363Z,14.82
2023-02-14T01:51:25.484Z,13.68
2023-02-14T01:54:31.739Z,13.13
2023-02-14T01:57:43.829Z,19.38
2023-02-14T02:00:59.446Z,12.10
2023-02-14T02:04:12.900Z,12.68
2023-02-14T02:07:19.565Z,15.40
2023-02-14T02:10:21.998Z,15.45
2023-02-14T02:13:25.460Z,15.73
2023-02-14T02:16:55.764Z,18.70
2023-02-14T02:20:31.656Z,17.70
2023-02-14T02:23:45.373Z,14.60
2023-02-14T02:26:47.436Z,18.38
2023-02-14T02:30:07.904Z,14.32
2023-02-14T02:33:12.768Z,14.13
2023-02-14T02:36:30.081Z,14.35
2023-02-14T02:39:51.151Z,18.75
2023-02-14T02:43:15.490Z,15.43
2023-02-14T02:46:48.346Z,12.80
2023-02-14T02:50:18.011Z,17.10
2023-02-14T02:53:35.102Z,16.60
2023-02-14T02:56:49.932Z,17.23
2023-02-14T02:59:57.529Z,15.55
2023-02-14T03:03:18.128Z,16.55
2023-02-14T03:06:20.186Z,15.65
2023-02-14T03:09:28.011Z,12.73
2023-02-14T03:12:39.086Z,14.25
2023-02-14T03:15:59.048Z,12.20
2023-02-14T03:19:10.830Z,6.95
2023-02-14T03:22:30.224Z,15.63
2023-02-14T03:25:43.019Z,8.35
2023-02-14T03:28:59.014Z,8.00
2023-02-14T03:32:23.016Z,5.10
2023-02-14T03:35:46.705Z,5.15
2023-02-14T03:39:08.178Z,5.88
2023-02-14T03:42:25.526Z,5.68
2023-02-14T03:45:40.832Z,6.38
2023-02-14T03:48:44.515Z,5.88
2023-02-14T03:51:50.808Z,3.53
2023-02-14T03:54:56.674Z,7.13
2023-02-14T03:58:12.692Z,10.68
2023-02-14T04:01:19.224Z,7.55
2023-02-14T04:04:25.458Z,7.20
2023-02-14T04:07:27.570Z,6.45
2023-02-14T04:10:29.659Z,6.63
2023-02-14T04:13:32.186Z,5.35
2023-02-14T04:16:54.180Z,5.03
2023-02-14T04:19:56.949Z,3.38
2023-02-14T04:22:59.188Z,4.07
2023-02-14T04:26:03.799Z,3.92
2023-02-14T04:29:05.803Z,3.60
2023-02-14T04:32:11.038Z,4.70
2023-02-14T04:35:13.205Z,3.40
2023-02-14T04:38:15.455Z,4.72
2023-02-14T04:41:17.551Z,6.40
2023-02-14T04:44:20.521Z,6.75
2023-02-14T04:47:22.544Z,4.35
2023-02-14T04:50:26.066Z,5.15
2023-02-14T04:53:27.993Z,4.20
2023-02-14T04:56:30.129Z,6.20
2023-02-14T04:59:32.099Z,4.53
2023-02-14T05:02:34.128Z,3.78
2023-02-14T05:05:36.175Z,3.83
2023-02-14T05:08:38.243Z,7.13
2023-02-14T05:11:40.249Z,4.40
2023-02-14T05:14:42.296Z,5.88
2023-02-14T05:17:44.425Z,5.20
2023-02-14T05:20:50.062Z,4.28
2023-02-14T05:23:52.025Z,4.53
2023-02-14T05:26:54.071Z,4.45
2023-02-14T05:29:56.134Z,4.47
2023-02-14T05:32:58.343Z,3.25
2023-02-14T05:36:03.602Z,6.07
2023-02-14T05:39:05.727Z,5.32
2023-02-14T05:45:10.905Z,4.13
2023-02-14T05:48:13.487Z,5.30
2023-02-14T05:51:15.580Z,5.40
2023-02-14T05:54:17.614Z,3.80
2023-02-14T05:57:19.724Z,8.80
2023-02-14T06:00:24.043Z,4.80
2023-02-14T06:03:26.389Z,5.60
2023-02-14T06:06:28.448Z,5.05
2023-02-14T06:09:30.574Z,9.52
2023-02-14T06:12:32.998Z,4.45
2023-02-14T06:15:36.335Z,6.22
2023-02-14T06:18:39.224Z,7.38
2023-02-14T06:21:41.207Z,6.88
2023-02-14T06:24:43.268Z,6.90
2023-02-14T06:27:45.942Z,5.45
2023-02-14T06:30:48.845Z,6.50
2023-02-14T06:33:52.510Z,5.60
2023-02-14T06:36:54.621Z,8.05
2023-02-14T06:39:56.694Z,3.72
2023-02-14T06:42:58.715Z,6.75
2023-02-14T06:46:01.227Z,7.35
2023-02-14T06:49:03.274Z,7.30
2023-02-14T06:52:05.665Z,5.95
2023-02-14T06:55:08.047Z,7.10
2023-02-14T06:58:10.046Z,6.32
2023-02-14T07:01:12.085Z,8.90
2023-02-14T07:04:15.217Z,7.22
2023-02-14T07:07:17.212Z,7.18
2023-02-14T07:10:19.987Z,8.35
2023-02-14T07:13:22.214Z,4.45
2023-02-14T07:16:24.500Z,7.25
2023-02-14T07:19:26.557Z,10.18
2023-02-14T07:22:30.311Z,8.02
2023-02-14T07:25:32.623Z,13.77
2023-02-14T07:28:34.686Z,9.30
2023-02-14T07:31:36.932Z,11.10
2023-02-14T07:34:39.174Z,11.15
2023-02-14T07:37:41.296Z,9.57
2023-02-14T07:40:43.369Z,10.48
2023-02-14T07:43:45.297Z,10.32
2023-02-14T07:46:47.347Z,6.60
2023-02-14T07:49:49.366Z,11.13
2023-02-14T07:52:51.422Z,12.25
2023-02-14T07:55:53.797Z,10.07
2023-02-14T07:58:55.828Z,8.77
2023-02-14T08:01:58.245Z,10.70
2023-02-14T08:05:00.403Z,7.63
2023-02-14T08:08:02.606Z,8.60
2023-02-14T08:11:04.666Z,8.40
2023-02-14T08:14:06.773Z,10.30
2023-02-14T08:17:10.323Z,8.95
2023-02-14T08:20:13.458Z,8.82
2023-02-14T08:23:17.915Z,11.27
2023-02-14T08:26:20.294Z,13.85
2023-02-14T08:29:22.327Z,9.25
2023-02-14T08:32:24.444Z,11.90
2023-02-14T08:35:26.563Z,9.80
2023-02-14T08:38:29.215Z,9.32
2023-02-14T08:41:31.757Z,6.72
2023-02-14T08:44:33.736Z,8.55
2023-02-14T08:47:36.837Z,10.98
2023-02-14T08:50:39.854Z,7.60
2023-02-14T08:53:42.889Z,11.55
2023-02-14T08:56:45.063Z,8.20
2023-02-14T08:59:47.402Z,9.02
2023-02-14T09:02:53.196Z,10.13
2023-02-14T09:06:02.816Z,11.88
2023-02-14T09:09:06.470Z,13.07
2023-02-14T09:12:10.319Z,13.27
2023-02-14T09:15:12.787Z,9.27
2023-02-14T09:18:16.310Z,12.27
2023-02-14T09:21:21.506Z,7.85
2023-02-14T09:24:23.556Z,9.82
2023-02-14T09:27:25.642Z,7.65
2023-02-14T09:30:27.871Z,9.02
2023-02-14T09:33:30.047Z,10.50
2023-02-14T09:36:51.139Z,7.93
2023-02-14T09:39:53.274Z,10.90
2023-02-14T09:43:01.831Z,10.18
2023-02-14T09:46:07.641Z,12.88
2023-02-14T09:49:15.512Z,12.55
2023-02-14T09:52:20.023Z,10.27
2023-02-14T09:55:22.597Z,11.77
2023-02-14T09:58:40.025Z,9.93
2023-02-14T10:02:32.876Z,16.10
2023-02-14T10:05:43.990Z,10.45
2023-02-14T10:09:13.619Z,13.20
2023-02-14T10:15:32.177Z,13.05
2023-02-14T10:18:56.159Z,12.60
2023-02-14T10:22:03.303Z,10.13
2023-02-14T10:25:29.733Z,12.18
2023-02-14T10:28:43.090Z,11.68
2023-02-14T10:31:56.015Z,15.20
2023-02-14T10:35:01.129Z,13.32
2023-02-14T10:38:19.960Z,15.35
2023-02-14T10:42:06.821Z,18.00
2023-02-14T10:45:29.288Z,15.27
2023-02-14T10:48:59.809Z,16.48
2023-02-14T10:52:15.068Z,13.73
2023-02-14T10:55:32.975Z,12.77
2023-02-14T10:58:38.358Z,11.88
2023-02-14T11:01:40.887Z,19.17
2023-02-14T11:04:44.457Z,12.98
2023-02-14T11:07:46.441Z,15.90
2023-02-14T11:10:48.847Z,14.30
2023-02-14T11:13:50.973Z,15.27
2023-02-14T11:16:54.615Z,20.60
2023-02-14T11:20:02.113Z,16.25
2023-02-14T11:23:19.172Z,13.15
2023-02-14T11:26:25.768Z,14.52
2023-02-14T11:29:31.021Z,12.15
2023-02-14T11:32:37.664Z,14.15
2023-02-14T11:35:39.814Z,12.00
2023-02-14T11:38:44.438Z,17.08
2023-02-14T11:41:56.392Z,14.27
2023-02-14T11:44:59.737Z,16.13
2023-02-14T11:48:36.651Z,11.68
2023-02-14T11:51:45.589Z,11.38
2023-02-14T11:54:49.661Z,16.30
2023-02-14T11:57:52.070Z,13.50
2023-02-14T12:00:54.496Z,11.35
2023-02-14T12:04:01.675Z,18.20
2023-02-14T12:07:16.688Z,15.15
2023-02-14T12:10:25.053Z,15.70
2023-02-14T12:13:27.094Z,15.73
2023-02-14T12:16:38.857Z,12.93
2023-02-14T12:19:54.755Z,12.95
2023-02-14T12:23:03.890Z,15.95
2023-02-14T12:26:43.324Z,12.98
2023-02-14T12:29:48.761Z,13.88
2023-02-14T12:32:56.521Z,9.05
2023-02-14T12:36:09.215Z,16.20
2023-02-14T12:39:20.994Z,12.48
2023-02-14T12:42:35.201Z,15.85
2023-02-14T12:45:55.767Z,17.05
2023-02-14T12:49:00.588Z,11.02
2023-02-14T12:52:20.647Z,14.45
2023-02-14T12:55:36.908Z,16.67
2023-02-14T12:58:59.240Z,23.83
2023-02-14T13:02:16.511Z,14.02
2023-02-14T13:05:53.598Z,12.00
2023-02-14T13:09:14.474Z,11.30
2023-02-14T13:12:35.099Z,12.90
2023-02-14T13:15:55.053Z,14.73
2023-02-14T13:19:05.725Z,15.25
2023-02-14T13:22:13.674Z,15.48
2023-02-14T13:25:33.646Z,11.70
2023-02-14T13:28:39.384Z,12.15
2023-02-14T13:31:42.297Z,13.32
2023-02-14T13:34:47.760Z,18.17
2023-02-14T13:37:56.226Z,9.43
2023-02-14T13:41:01.117Z,9.77
2023-02-14T13:44:05.558Z,12.40
2023-02-14T13:47:16.186Z,13.20
2023-02-14T13:50:21.747Z,8.48
2023-02-14T13:53:38.056Z,11.93
2023-02-14T13:56:40.472Z,9.82
2023-02-14T13:59:43.219Z,11.38
2023-02-14T14:03:05.543Z,12.57
2023-02-14T14:06:12.977Z,8.80
2023-02-14T14:09:43.349Z,11.48
2023-02-14T14:12:46.105Z,13.52
2023-02-14T14:16:21.778Z,13.07
2023-02-14T14:19:26.909Z,9.23
2023-02-14T14:22:32.016Z,14.93
2023-02-14T14:25:41.494Z,14.45
2023-02-14T14:28:47.864Z,12.38
2023-02-14T14:31:55.783Z,12.82
2023-02-14T14:35:08.478Z,10.40
2023-02-14T14:38:14.465Z,13.85
2023-02-14T14:41:17.186Z,13.18
2023-02-14T14:44:19.364Z,12.73
2023-02-14T14:47:26.978Z,15.27
2023-02-14T14:50:33.070Z,14.17
2023-02-14T14:53:44.657Z,12.60
2023-02-14T14:57:01.675Z,39.85
2023-02-14T15:00:28.541Z,10.93
2023-02-14T15:03:31.265Z,10.77
2023-02-14T15:06:33.261Z,10.30
2023-02-14T15:09:36.805Z,15.00
2023-02-14T15:12:57.640Z,11.65
2023-02-14T15:16:01.847Z,15.80
2023-02-14T15:19:19.056Z,12.23
2023-02-14T15:22:23.988Z,15.38
2023-02-14T15:25:27.761Z,15.10
2023-02-14T15:28:32.247Z,11.95
2023-02-14T15:31:40.826Z,13.93
2023-02-14T15:34:43.013Z,15.00
2023-02-14T15:37:46.940Z,12.00
2023-02-14T15:40:49.371Z,14.32
2023-02-14T15:43:54.031Z,13.27
2023-02-14T15:47:05.759Z,16.02
2023-02-14T15:50:31.422Z,13.30
2023-02-14T15:53:58.484Z,13.40
2023-02-14T15:57:01.457Z,16.65
2023-02-14T16:00:17.081Z,19.92
2023-02-14T16:03:22.720Z,13.82
2023-02-14T16:06:45.051Z,15.75
2023-02-14T16:09:48.171Z,13.57
2023-02-14T16:13:20.542Z,13.25
2023-02-14T16:16:22.708Z,17.73
2023-02-14T16:19:37.268Z,12.30
2023-02-14T16:22:39.290Z,16.60
2023-02-14T16:25:42.001Z,16.63
2023-02-14T16:28:44.032Z,17.45
2023-02-14T16:32:14.117Z,13.98
2023-02-14T16:35:21.259Z,18.73
2023-02-14T16:38:23.693Z,13.52
2023-02-14T16:41:27.956Z,24.33
2023-02-14T16:44:29.988Z,13.38
2023-02-14T16:47:32.059Z,16.35
2023-02-14T16:50:36.555Z,13.70
2023-02-14T16:53:41.151Z,14.43
2023-02-14T16:56:53.633Z,13.70
2023-02-14T16:59:56.579Z,12.90
2023-02-14T17:03:08.671Z,14.77
2023-02-14T17:06:15.859Z,11.13
2023-02-14T17:09:24.384Z,12.82
2023-02-14T17:12:35.338Z,10.38
2023-02-14T17:15:39.032Z,14.73
2023-02-14T17:18:43.548Z,14.55
2023-02-14T17:21:45.639Z,12.27
2023-02-14T17:24:47.840Z,12.50
2023-02-14T17:27:49.860Z,17.95
2023-02-14T17:30:51.812Z,15.38
2023-02-14T17:33:53.958Z,15.32
2023-02-14T17:36:55.964Z,10.48
2023-02-14T17:40:01.280Z,14.02
2023-02-14T17:43:03.457Z,11.32
2023-02-14T17:46:05.834Z,15.32
2023-02-14T17:49:09.729Z,13.15
2023-02-14T17:52:11.764Z,15.77
2023-02-14T17:55:15.917Z,12.43
2023-02-14T17:58:17.935Z,16.23
2023-02-14T18:01:22.639Z,15.90
2023-02-14T18:04:25.682Z,13.55
2023-02-14T18:07:27.709Z,12.60
2023-02-14T18:10:29.800Z,9.93
2023-02-14T18:13:32.231Z,15.05
2023-02-14T18:16:37.053Z,15.77
2023-02-14T18:19:39.098Z,13.80
2023-02-14T18:22:41.112Z,22.52
2023-02-14T18:25:49.983Z,14.50
2023-02-14T18:28:52.121Z,10.15
2023-02-14T18:31:54.222Z,15.68
2023-02-14T18:34:56.333Z,17.15
2023-02-14T18:37:58.544Z,14.98
2023-02-14T18:41:05.364Z,15.35
2023-02-14T18:44:10.623Z,19.90
2023-02-14T18:47:12.526Z,16.58
2023-02-14T18:50:14.577Z,19.35
2023-02-14T18:53:17.890Z,15.70
2023-02-14T18:56:24.298Z,13.13
2023-02-14T18:59:26.300Z,12.63
2023-02-14T19:02:28.428Z,13.93
2023-02-14T19:05:30.528Z,13.93
2023-02-14T19:08:38.457Z,18.13
2023-02-14T19:11:40.909Z,13.23
2023-02-14T19:14:43.122Z,15.15
2023-02-14T19:17:45.630Z,15.07
2023-02-14T19:20:48.402Z,13.23
2023-02-14T19:23:53.035Z,17.02
2023-02-14T19:26:56.953Z,11.02
2023-02-14T19:29:59.096Z,10.82
2023-02-14T19:33:01.291Z,16.27
2023-02-14T19:36:05.723Z,15.50
2023-02-14T19:39:10.202Z,12.85
2023-02-14T19:42:14.084Z,11.02
2023-02-14T19:45:19.053Z,14.10
2023-02-14T19:48:21.028Z,12.32
2023-02-14T19:51:26.617Z,14.75
2023-02-14T19:54:30.156Z,16.42
2023-02-14T19:57:32.162Z,16.88
2023-02-14T20:00:37.132Z,11.50
2023-02-14T20:03:39.282Z,14.35
2023-02-14T20:06:43.952Z,15.25
2023-02-14T20:09:46.114Z,11.98
2023-02-14T20:12:48.397Z,13.88
2023-02-14T20:15:51.708Z,16.02
2023-02-14T20:18:54.450Z,11.93
2023-02-14T20:21:56.625Z,13.10
2023-02-14T20:25:00.743Z,17.98
2023-02-14T20:28:02.777Z,15.00
2023-02-14T20:31:13.260Z,23.60
2023-02-14T20:34:17.200Z,16.95
2023-02-14T20:37:22.667Z,14.07
2023-02-14T20:40:28.091Z,14.57
2023-02-14T20:43:31.487Z,12.95
2023-02-14T20:46:34.799Z,11.32
2023-02-14T20:49:39.288Z,12.73
2023-02-14T20:52:41.385Z,14.43
2023-02-14T20:55:47.137Z,11.68
2023-02-14T20:58:49.963Z,18.75
2023-02-14T21:01:52.074Z,13.63
2023-02-14T21:04:54.174Z,15.15
2023-02-14T21:07:56.487Z,14.93
2023-02-14T21:11:00.515Z,16.48
2023-02-14T21:14:03.136Z,16.85
2023-02-14T21:17:05.144Z,15.35
2023-02-14T21:20:07.883Z,18.58
2023-02-14T21:23:10.515Z,13.52
2023-02-14T21:26:12.568Z,16.33
2023-02-14T21:29:14.760Z,12.93
2023-02-14T21:32:16.971Z,11.20
2023-02-14T21:35:19.175Z,13.65
2023-02-14T21:38:21.699Z,13.57
2023-02-14T21:41:26.736Z,16.33
2023-02-14T21:44:47.580Z,15.20
2023-02-14T21:48:11.108Z,14.90
2023-02-14T21:51:13.940Z,12.43
2023-02-14T21:54:16.640Z,14.40
2023-02-14T21:57:21.040Z,14.60
2023-02-14T22:00:23.132Z,13.25
2023-02-14T22:03:25.315Z,12.40
2023-02-14T22:06:31.377Z,16.50
2023-02-14T22:09:34.233Z,10.98
2023-02-14T22:12:36.404Z,16.45
2023-02-14T22:15:41.354Z,13.40
2023-02-14T22:18:43.652Z,11.45
2023-02-14T22:25:12.118Z,17.98
2023-02-14T22:28:14.174Z,21.75
2023-02-14T22:31:18.659Z,12.90
2023-02-14T22:34:20.837Z,14.07
2023-02-14T22:37:22.964Z,15.20
2023-02-14T22:40:25.129Z,12.73
2023-02-14T22:43:27.451Z,19.00
2023-02-14T22:46:29.491Z,13.88
2023-02-14T22:49:31.546Z,11.63
2023-02-14T22:52:34.994Z,15.55
2023-02-14T22:55:37.030Z,22.65
2023-02-14T22:58:39.480Z,13.05
2023-02-14T23:01:42.829Z,14.48
2023-02-14T23:04:44.904Z,13.75
2023-02-14T23:07:47.123Z,13.02
2023-02-14T23:10:49.437Z,14.95
2023-02-14T23:14:10.077Z,14.13
2023-02-14T23:17:18.812Z,12.98
2023-02-14T23:20:39.850Z,15.75
2023-02-14T23:23:41.935Z,14.60
2023-02-14T23:26:44.244Z,17.83
2023-02-14T23:29:46.458Z,15.88
2023-02-14T23:32:48.462Z,13.70
2023-02-14T23:35:50.440Z,13.52
2023-02-14T23:38:52.550Z,20.77
2023-02-14T23:41:55.384Z,17.52
2023-02-14T23:45:17.421Z,15.73
2023-02-14T23:48:19.475Z,18.58
2023-02-14T23:51:21.471Z,10.27
2023-02-14T23:54:24.207Z,21.13
2023-02-14T23:57:26.290Z,12.85
